Time;durP1;ratioP1;P1;durP2;ratioP2;P2;SDS_P1;SDS_P2;PMS_P1;PMS_P2;Temp;Humidity;BMP_temperature;BMP_pressure;BME280_temperature;BME280_humidity;BME280_pressure;Samples;Min_cycle;Max_cycle;Signal;HPM_P1;HPM_P2
2023/05/04 00:00:30;;;;;;;1.05;0.52;;;;;;;9.80;100.00;102434.38;10386373;28;20061;-82
2023/05/04 00:05:31;;;;;;;0.08;0.08;;;;;;;9.93;100.00;102419.59;10396049;28;20037;-82
2023/05/04 00:10:33;;;;;;;0.52;0.52;;;;;;;9.78;100.00;102420.56;10392882;28;20056;-82
2023/05/04 00:15:34;;;;;;;0.60;0.60;;;;;;;9.62;100.00;102423.09;10394692;28;20038;-84
2023/05/04 00:20:36;;;;;;;0.75;0.47;;;;;;;9.73;100.00;102409.09;10388940;28;20124;-81
2023/05/04 00:25:38;;;;;;;0.95;0.73;;;;;;;9.64;100.00;102403.47;10384290;28;20486;-81
2023/05/04 00:30:39;;;;;;;0.40;0.30;;;;;;;9.49;100.00;102404.41;10387809;28;20045;-81
2023/05/04 00:35:40;;;;;;;0.15;0.15;;;;;;;9.59;100.00;102398.09;10392018;28;20073;-81
2023/05/04 00:40:42;;;;;;;0.22;0.10;;;;;;;9.44;100.00;102392.97;10361014;28;20524;-83
2023/05/04 00:45:44;;;;;;;0.60;0.60;;;;;;;9.56;100.00;102386.75;10388518;28;20045;-81
2023/05/04 00:50:46;;;;;;;0.68;0.68;;;;;;;9.48;100.00;102369.22;10396791;28;20121;-82
2023/05/04 00:55:47;;;;;;;0.75;0.57;;;;;;;9.28;100.00;102365.53;10395427;28;20244;-82
2023/05/04 01:00:49;;;;;;;0.20;0.20;;;;;;;9.39;100.00;102355.84;10389182;28;20046;-82
2023/05/04 01:06:03;;;;;;;1.45;0.55;;;;;;;9.12;100.00;102358.66;10391767;28;20402;-82
2023/05/04 01:11:20;;;;;;;0.73;0.55;;;;;;;9.21;100.00;102353.16;10386082;28;20540;-82
2023/05/04 01:16:21;;;;;;;0.47;0.38;;;;;;;9.12;100.00;102348.38;10380846;28;20825;-83
2023/05/04 01:21:23;;;;;;;0.28;0.22;;;;;;;9.07;100.00;102343.81;10362784;28;20046;-83
2023/05/04 01:26:29;;;;;;;0.20;0.20;;;;;;;9.03;100.00;102342.75;10398022;28;20452;-82
2023/05/04 01:31:34;;;;;;;1.58;1.05;;;;;;;9.08;100.00;102340.44;10393515;28;20128;-83
2023/05/04 01:36:36;;;;;;;0.25;0.22;;;;;;;8.83;100.00;102333.91;10410710;28;20057;-82
2023/05/04 01:41:37;;;;;;;0.75;0.47;;;;;;;8.95;100.00;102334.59;10391055;28;20469;-82
2023/05/04 01:46:39;;;;;;;0.20;0.20;;;;;;;8.82;100.00;102340.75;10389404;28;20072;-83
2023/05/04 01:51:40;;;;;;;0.98;0.60;;;;;;;8.91;100.00;102334.34;10391511;28;20048;-82
2023/05/04 01:56:42;;;;;;;0.82;0.52;;;;;;;9.01;100.00;102334.06;10394585;28;20053;-82
2023/05/04 02:01:44;;;;;;;0.98;0.45;;;;;;;8.78;100.00;102343.94;10379998;28;20104;-82
2023/05/04 02:06:46;;;;;;;0.35;0.35;;;;;;;8.61;100.00;102331.81;10389996;28;20049;-81
2023/05/04 02:11:48;;;;;;;1.38;0.93;;;;;;;8.79;100.00;102332.84;10392858;28;20034;-81
2023/05/04 02:16:49;;;;;;;0.08;0.08;;;;;;;8.64;100.00;102332.00;10372714;28;20049;-82
2023/05/04 02:21:51;;;;;;;0.20;0.17;;;;;;;8.60;100.00;102333.50;10393385;28;20138;-82
2023/05/04 02:26:55;;;;;;;0.10;0.10;;;;;;;8.49;100.00;102326.88;10390145;28;20046;-81
2023/05/04 02:31:57;;;;;;;1.00;0.68;;;;;;;8.49;100.00;102322.63;10394956;28;20474;-82
2023/05/04 02:36:59;;;;;;;0.20;0.20;;;;;;;8.64;100.00;102326.84;10386517;28;20092;-82
2023/05/04 02:42:00;;;;;;;0.10;0.10;;;;;;;8.61;100.00;102321.53;10385905;28;20105;-81
2023/05/04 02:47:02;;;;;;;0.17;0.17;;;;;;;8.62;100.00;102319.06;10459929;22;20072;-75
2023/05/04 02:52:03;;;;;;;0.77;0.60;;;;;;;8.57;100.00;102307.63;10444371;28;20514;-76
2023/05/04 02:57:05;;;;;;;0.30;0.25;;;;;;;8.44;100.00;102300.00;10443619;28;20045;-75
2023/05/04 03:02:07;;;;;;;0.30;0.30;;;;;;;8.42;100.00;102302.47;10443789;28;20045;-76
2023/05/04 03:07:09;;;;;;;0.57;0.40;;;;;;;8.38;100.00;102303.09;10426969;28;20049;-76
2023/05/04 03:12:11;;;;;;;2.10;0.75;;;;;;;8.48;100.00;102300.28;10443411;28;20053;-76
2023/05/04 03:17:13;;;;;;;0.13;0.13;;;;;;;8.29;100.00;102310.28;10442801;28;20051;-76
2023/05/04 03:22:15;;;;;;;0.52;0.43;;;;;;;8.18;100.00;102302.84;10426466;28;20072;-76
2023/05/04 03:27:18;;;;;;;0.30;0.30;;;;;;;8.31;100.00;102286.47;10442655;28;20154;-75
2023/05/04 03:32:20;;;;;;;0.47;0.47;;;;;;;8.39;100.00;102285.22;10426069;28;20064;-76
2023/05/04 03:37:22;;;;;;;0.57;0.40;;;;;;;8.12;100.00;102287.06;10425763;28;20048;-75
2023/05/04 03:42:23;;;;;;;0.73;0.47;;;;;;;7.90;100.00;102293.53;10442436;28;20400;-76
2023/05/04 03:47:26;;;;;;;0.43;0.15;;;;;;;8.15;100.00;102291.50;10442667;28;20103;-76
2023/05/04 03:52:27;;;;;;;0.68;0.68;;;;;;;8.00;100.00;102286.38;10441731;28;20045;-76
2023/05/04 03:57:29;;;;;;;0.65;0.55;;;;;;;8.16;100.00;102277.88;10441128;28;20144;-77
2023/05/04 04:02:31;;;;;;;0.10;0.10;;;;;;;8.19;100.00;102284.06;10436252;28;20053;-76
2023/05/04 04:07:33;;;;;;;0.15;0.15;;;;;;;8.19;100.00;102291.78;10383320;28;20136;-76
2023/05/04 04:12:35;;;;;;;0.88;0.40;;;;;;;8.02;100.00;102277.97;10402855;28;20057;-77
2023/05/04 04:17:37;;;;;;;0.47;0.47;;;;;;;8.25;100.00;102271.59;10383218;28;20508;-77
2023/05/04 04:22:38;;;;;;;0.55;0.55;;;;;;;8.15;100.00;102268.41;10399525;28;20048;-76
2023/05/04 04:27:40;;;;;;;2.75;1.27;;;;;;;8.06;100.00;102264.50;10399623;28;20505;-76
2023/05/04 04:32:42;;;;;;;0.32;0.30;;;;;;;8.14;100.00;102264.06;10382659;28;20084;-76
2023/05/04 04:37:43;;;;;;;0.65;0.35;;;;;;;8.22;100.00;102262.81;10438262;28;20045;-80
2023/05/04 04:42:45;;;;;;;0.20;0.20;;;;;;;8.21;100.00;102264.50;10454175;28;20488;-79
2023/05/04 04:47:47;;;;;;;1.80;1.27;;;;;;;8.33;100.00;102263.44;10420670;28;20064;-79
2023/05/04 04:52:48;;;;;;;2.83;0.73;;;;;;;8.53;100.00;102262.03;10433854;28;20046;-80
2023/05/04 04:57:51;;;;;;;0.93;0.65;;;;;;;8.69;100.00;102253.47;10448479;28;20045;-80
2023/05/04 05:02:53;;;;;;;1.35;0.63;;;;;;;9.06;100.00;102255.47;10437221;28;20049;-80
2023/05/04 05:07:55;;;;;;;0.50;0.43;;;;;;;8.88;100.00;102256.28;10437391;28;20185;-80
2023/05/04 05:12:56;;;;;;;0.40;0.35;;;;;;;9.77;100.00;102251.47;10436640;28;20069;-78
2023/05/04 05:17:58;;;;;;;0.85;0.73;;;;;;;9.46;100.00;102244.75;10436507;28;20045;-79
2023/05/04 05:23:00;;;;;;;0.55;0.40;;;;;;;9.27;100.00;102249.75;10434930;28;20060;-80
2023/05/04 05:28:01;;;;;;;0.73;0.63;;;;;;;9.39;100.00;102246.91;10436558;28;20068;-79
2023/05/04 05:33:03;;;;;;;0.50;0.38;;;;;;;9.57;100.00;102244.44;10454661;28;20098;-79
2023/05/04 05:38:04;;;;;;;1.75;0.50;;;;;;;9.93;100.00;102252.25;10438165;28;20492;-76
2023/05/04 05:43:06;;;;;;;0.60;0.60;;;;;;;9.82;100.00;102242.28;10439072;28;20079;-76
2023/05/04 05:48:08;;;;;;;0.70;0.70;;;;;;;10.59;100.00;102246.88;10438269;28;20041;-77
2023/05/04 05:53:10;;;;;;;1.65;1.02;;;;;;;10.31;100.00;102236.09;10421737;28;20423;-76
2023/05/04 05:58:12;;;;;;;0.95;0.70;;;;;;;10.50;100.00;102230.97;10444977;28;20077;-76
2023/05/04 06:03:14;;;;;;;0.50;0.40;;;;;;;10.64;100.00;102232.50;10445312;28;20053;-74
2023/05/04 06:08:16;;;;;;;1.25;0.98;;;;;;;10.98;100.00;102223.78;10438994;28;20072;-82
2023/05/04 06:13:17;;;;;;;0.47;0.45;;;;;;;11.23;100.00;102227.44;10436588;28;20052;-81
2023/05/04 06:18:19;;;;;;;0.70;0.70;;;;;;;11.03;100.00;102214.53;10427089;28;20075;-83
2023/05/04 06:23:21;;;;;;;1.17;0.57;;;;;;;11.28;100.00;102207.91;10425223;28;20067;-82
2023/05/04 06:28:23;;;;;;;1.08;0.75;;;;;;;12.76;100.00;102201.84;10415729;28;20045;-82
2023/05/04 06:33:25;;;;;;;1.00;0.73;;;;;;;12.23;100.00;102217.91;10426280;28;20061;-82
2023/05/04 06:38:27;;;;;;;0.22;0.22;;;;;;;12.27;100.00;102217.19;10427169;28;20060;-81
2023/05/04 06:43:28;;;;;;;0.65;0.65;;;;;;;12.24;100.00;102209.34;10430823;28;20056;-81
2023/05/04 06:48:30;;;;;;;0.28;0.28;;;;;;;12.34;100.00;102201.13;10425938;28;20071;-82
2023/05/04 06:53:32;;;;;;;1.02;0.93;;;;;;;12.40;100.00;102197.03;10423527;28;20041;-81
2023/05/04 06:58:33;;;;;;;0.70;0.45;;;;;;;13.36;100.00;102195.38;10429792;28;20053;-81
2023/05/04 07:03:35;;;;;;;0.45;0.22;;;;;;;13.82;100.00;102186.59;10419826;28;20064;-81
2023/05/04 07:08:37;;;;;;;0.25;0.20;;;;;;;13.97;100.00;102178.47;10435109;28;20439;-81
2023/05/04 07:13:39;;;;;;;2.75;0.60;;;;;;;15.16;100.00;102182.00;10425839;28;20041;-82
2023/05/04 07:18:40;;;;;;;0.40;0.38;;;;;;;14.89;100.00;102169.16;10418098;28;20155;-81
2023/05/04 07:23:42;;;;;;;0.88;0.88;;;;;;;15.30;100.00;102166.81;10436267;28;20496;-83
2023/05/04 07:28:43;;;;;;;1.17;0.65;;;;;;;14.85;100.00;102167.31;10425050;28;20098;-82
2023/05/04 07:33:45;;;;;;;1.05;0.90;;;;;;;15.43;100.00;102165.44;10428737;28;20103;-81
2023/05/04 07:38:47;;;;;;;1.23;0.93;;;;;;;15.90;100.00;102151.88;10434634;28;20044;-82
2023/05/04 07:43:48;;;;;;;1.25;0.82;;;;;;;15.64;100.00;102152.09;10433790;28;20048;-83
2023/05/04 07:48:50;;;;;;;0.70;0.55;;;;;;;16.75;100.00;102140.72;10434951;28;20056;-81
2023/05/04 07:53:51;;;;;;;1.88;0.50;;;;;;;16.12;100.00;102135.06;10433278;28;20037;-82
2023/05/04 07:58:53;;;;;;;0.93;0.40;;;;;;;17.15;100.00;102139.78;10434445;28;20386;-82
2023/05/04 08:03:55;;;;;;;1.02;0.47;;;;;;;19.12;96.92;102119.97;10433873;28;20045;-82
2023/05/04 08:08:56;;;;;;;0.45;0.35;;;;;;;17.57;96.71;102133.56;10429923;28;20519;-81
2023/05/04 08:13:58;;;;;;;0.63;0.47;;;;;;;18.59;92.36;102118.53;10434626;28;20100;-81
2023/05/04 08:19:00;;;;;;;0.90;0.47;;;;;;;18.11;94.50;102112.69;10432861;28;20053;-81
2023/05/04 08:24:02;;;;;;;0.88;0.55;;;;;;;19.14;91.38;102110.44;10417298;28;20052;-81
2023/05/04 08:29:09;;;;;;;0.20;0.20;;;;;;;17.92;94.52;102099.34;10451191;28;20044;-81
2023/05/04 08:34:10;;;;;;;0.10;0.10;;;;;;;18.10;93.14;102113.53;10433715;28;20048;-82
2023/05/04 08:39:12;;;;;;;0.20;0.10;;;;;;;20.05;86.83;102100.69;10450080;28;20546;-81
2023/05/04 08:44:16;;;;;;;0.68;0.45;;;;;;;19.80;87.67;102095.28;10430444;28;20049;-81
2023/05/04 08:49:19;;;;;;;1.20;0.75;;;;;;;20.20;90.60;102088.53;10409977;28;20060;-81
2023/05/04 08:54:21;;;;;;;0.38;0.38;;;;;;;19.45;87.96;102081.97;10432012;28;20149;-81
2023/05/04 08:59:23;;;;;;;0.75;0.25;;;;;;;19.43;85.27;102086.28;10432495;28;20041;-81
2023/05/04 09:04:25;;;;;;;0.47;0.25;;;;;;;20.13;88.44;102072.81;10431486;28;20045;-80
2023/05/04 09:09:30;;;;;;;0.65;0.65;;;;;;;21.82;83.14;102059.97;10415480;28;20037;-80
2023/05/04 09:14:34;;;;;;;0.35;0.35;;;;;;;21.14;81.00;102059.16;10448917;28;20045;-80
2023/05/04 09:19:37;;;;;;;0.68;0.43;;;;;;;20.33;83.32;102056.31;10421743;28;20045;-82
2023/05/04 09:24:39;;;;;;;0.57;0.40;;;;;;;22.76;78.01;102045.53;10417976;28;20430;-81
2023/05/04 09:29:41;;;;;;;0.50;0.40;;;;;;;21.45;76.18;102043.38;10418802;28;20083;-82
2023/05/04 09:34:50;;;;;;;1.27;0.82;;;;;;;22.64;79.92;102046.50;10431693;28;20132;-81
2023/05/04 09:39:57;;;;;;;0.30;0.30;;;;;;;22.22;77.13;102060.72;10438133;28;20041;-83
2023/05/04 09:45:03;;;;;;;0.15;0.15;;;;;;;23.70;79.06;102040.34;10433987;28;20053;-81
2023/05/04 09:50:14;;;;;;;0.47;0.20;;;;;;;22.47;76.58;102043.13;10439206;28;20450;-81
2023/05/04 09:55:19;;;;;;;0.20;0.15;;;;;;;23.16;72.35;102020.69;10423679;28;20049;-83
2023/05/04 10:00:21;;;;;;;0.82;0.65;;;;;;;24.22;68.54;102004.66;10438578;28;20098;-82
2023/05/04 10:05:23;;;;;;;0.60;0.43;;;;;;;23.52;71.53;102004.59;10436772;28;20036;-83
2023/05/04 10:10:25;;;;;;;0.65;0.35;;;;;;;24.06;71.93;101996.09;10438358;28;20151;-82
2023/05/04 10:15:27;;;;;;;0.65;0.30;;;;;;;24.86;68.30;101978.25;10456282;28;20040;-82
2023/05/04 10:20:52;;;;;;;0.43;0.20;;;;;;;24.63;68.20;101974.19;10437855;28;20458;-83
2023/05/04 10:26:25;;;;;;;0.20;0.15;;;;;;;25.15;65.05;101963.69;10413072;28;20060;-84
2023/05/04 10:31:39;;;;;;;0.38;0.38;;;;;;;25.93;70.87;101961.28;10432808;28;20095;-82
2023/05/04 10:36:41;;;;;;;0.30;0.30;;;;;;;25.97;64.04;101956.81;10410406;28;20053;-82
2023/05/04 10:42:03;;;;;;;0.40;0.30;;;;;;;23.12;64.90;101955.91;10435907;28;20496;-83
2023/05/04 10:47:06;;;;;;;1.08;0.60;;;;;;;23.82;63.96;101949.88;10438047;28;20041;-83
2023/05/04 10:52:15;;;;;;;0.22;0.22;;;;;;;24.22;59.81;101936.22;10436861;28;20106;-82
2023/05/04 10:57:17;;;;;;;0.65;0.47;;;;;;;26.23;60.89;101929.84;10435928;28;20050;-81
2023/05/04 11:02:23;;;;;;;0.30;0.30;;;;;;;26.81;55.92;101916.09;10454267;28;20079;-81
2023/05/04 11:07:37;;;;;;;0.90;0.30;;;;;;;27.08;53.24;101903.91;10436559;28;20041;-81
2023/05/04 11:12:39;;;;;;;6.70;2.08;;;;;;;27.08;49.59;101887.16;10431527;28;20059;-81
2023/05/04 11:17:50;;;;;;;0.73;0.60;;;;;;;26.52;51.96;101883.34;10435908;28;20079;-81
2023/05/04 11:22:53;;;;;;;0.57;0.45;;;;;;;26.75;49.96;101882.75;10454395;28;20399;-82
2023/05/04 11:27:55;;;;;;;0.55;0.55;;;;;;;26.31;52.47;101873.31;10436154;28;20122;-83
2023/05/04 11:32:59;;;;;;;0.28;0.20;;;;;;;26.51;47.83;101865.75;10430030;28;20557;-82
2023/05/04 11:38:01;;;;;;;0.25;0.25;;;;;;;27.06;45.54;101854.63;10435053;28;20052;-81
2023/05/04 11:43:03;;;;;;;1.35;0.93;;;;;;;27.68;50.26;101850.16;10422219;28;20103;-81
2023/05/04 11:48:07;;;;;;;0.43;0.43;;;;;;;27.23;48.78;101833.81;10435270;28;20562;-81
2023/05/04 11:53:11;;;;;;;1.23;0.30;;;;;;;26.57;48.38;101839.16;10451901;28;20069;-82
2023/05/04 11:58:12;;;;;;;4.72;0.75;;;;;;;26.64;45.86;101833.69;10434797;28;20500;-82
2023/05/04 12:03:16;;;;;;;0.95;0.52;;;;;;;27.58;51.64;101820.47;10430501;28;20053;-81
2023/05/04 12:08:22;;;;;;;0.25;0.20;;;;;;;26.52;47.81;101812.00;10433873;28;20126;-82
2023/05/04 12:13:24;;;;;;;0.52;0.40;;;;;;;26.05;48.15;101811.41;10433135;28;20397;-82
2023/05/04 12:18:28;;;;;;;0.22;0.22;;;;;;;25.43;50.53;101821.63;10420001;28;20049;-81
2023/05/04 12:23:30;;;;;;;0.30;0.30;;;;;;;26.37;54.00;101796.53;10434158;28;20049;-81
2023/05/04 12:28:34;;;;;;;0.50;0.20;;;;;;;26.96;48.37;101792.31;10451171;28;20052;-82
2023/05/04 12:33:35;;;;;;;0.65;0.50;;;;;;;27.28;49.42;101785.22;10433392;28;20575;-81
2023/05/04 12:38:37;;;;;;;0.47;0.35;;;;;;;26.31;49.72;101791.44;10451252;28;20045;-83
2023/05/04 12:43:39;;;;;;;3.72;1.85;;;;;;;26.58;49.38;101785.38;10433449;28;20210;-81
2023/05/04 12:48:41;;;;;;;0.57;0.57;;;;;;;26.87;50.33;101778.44;10431566;28;20076;-79
2023/05/04 12:53:42;;;;;;;0.20;0.20;;;;;;;26.89;57.59;101771.34;10431589;28;20053;-79
2023/05/04 12:58:44;;;;;;;0.50;0.43;;;;;;;26.69;51.20;101763.09;10416706;28;20055;-80
2023/05/04 13:03:46;;;;;;;0.60;0.47;;;;;;;27.17;52.27;101762.59;10424095;28;20057;-80
2023/05/04 13:08:48;;;;;;;1.48;0.63;;;;;;;27.14;49.31;101751.22;10430897;28;20049;-80
2023/05/04 13:13:51;;;;;;;0.47;0.40;;;;;;;26.64;52.06;101741.19;10421026;28;20045;-81
2023/05/04 13:18:54;;;;;;;1.35;0.90;;;;;;;25.43;51.99;101733.72;10411205;28;20481;-80
2023/05/04 13:23:56;;;;;;;0.43;0.38;;;;;;;25.98;54.87;101737.63;10400933;28;20064;-82
2023/05/04 13:28:58;;;;;;;1.08;0.40;;;;;;;27.11;51.91;101720.47;10425521;28;20049;-80
2023/05/04 13:34:00;;;;;;;3.70;0.68;;;;;;;26.82;51.43;101709.00;10410968;28;20045;-79
2023/05/04 13:39:02;;;;;;;0.55;0.45;;;;;;;26.62;54.17;101713.97;10418803;28;20048;-80
2023/05/04 13:44:03;;;;;;;1.55;1.10;;;;;;;25.39;52.34;101705.66;10407801;28;20543;-79
2023/05/04 13:49:05;;;;;;;0.85;0.85;;;;;;;25.75;52.84;101700.38;10417886;28;20065;-82
2023/05/04 13:54:08;;;;;;;0.80;0.73;;;;;;;26.62;49.76;101700.75;10443839;28;20047;-81
2023/05/04 13:59:10;;;;;;;1.88;0.73;;;;;;;25.40;53.24;101683.66;10422726;28;20459;-79
2023/05/04 14:04:12;;;;;;;0.73;0.40;;;;;;;27.32;51.49;101667.78;10429191;28;20446;-80
2023/05/04 14:09:14;;;;;;;1.15;0.93;;;;;;;26.82;56.44;101669.34;10422995;28;20128;-80
2023/05/04 14:14:16;;;;;;;0.45;0.30;;;;;;;26.57;52.27;101662.09;10417728;28;20041;-79
2023/05/04 14:19:18;;;;;;;0.77;0.50;;;;;;;25.89;55.20;101655.16;10405747;28;20041;-79
2023/05/04 14:24:20;;;;;;;1.08;0.88;;;;;;;25.13;51.68;101642.06;10424713;28;20049;-79
2023/05/04 14:29:22;;;;;;;2.90;0.75;;;;;;;25.63;51.56;101628.56;10447863;28;20119;-79
2023/05/04 14:34:25;;;;;;;0.85;0.80;;;;;;;25.57;55.70;101623.44;10452167;28;20095;-79
2023/05/04 14:39:29;;;;;;;0.85;0.65;;;;;;;25.74;56.98;101607.16;10450044;28;20033;-81
2023/05/04 14:44:33;;;;;;;0.90;0.70;;;;;;;25.31;57.94;101601.19;10435077;28;20435;-80
2023/05/04 14:49:40;;;;;;;2.13;1.02;;;;;;;25.86;58.90;101589.25;10413386;28;20052;-81
2023/05/04 14:54:42;;;;;;;0.45;0.45;;;;;;;24.52;58.52;101600.31;10425529;28;20041;-81
2023/05/04 14:59:44;;;;;;;1.13;0.85;;;;;;;24.91;61.38;101591.59;10435641;28;20040;-79
2023/05/04 15:04:46;;;;;;;0.40;0.40;;;;;;;25.31;61.62;101577.44;10452965;28;20532;-80
2023/05/04 15:09:48;;;;;;;0.65;0.65;;;;;;;25.66;56.67;101567.78;10452368;28;20496;-82
2023/05/04 15:14:50;;;;;;;0.50;0.50;;;;;;;25.20;59.60;101561.03;10432189;28;20073;-81
2023/05/04 15:19:51;;;;;;;18.23;1.30;;;;;;;25.19;62.42;101548.75;10426368;28;20374;-81
2023/05/04 15:24:54;;;;;;;2.67;1.23;;;;;;;25.21;55.61;101541.66;10408890;28;20041;-81
2023/05/04 15:29:56;;;;;;;0.45;0.40;;;;;;;25.45;59.02;101545.50;10426758;28;20143;-80
2023/05/04 15:34:57;;;;;;;0.55;0.47;;;;;;;24.97;55.77;101544.03;10448659;28;20040;-78
2023/05/04 15:40:07;;;;;;;0.63;0.30;;;;;;;25.91;58.68;101543.34;10417853;28;20040;-78
2023/05/04 15:45:09;;;;;;;1.40;0.95;;;;;;;25.08;57.59;101541.13;10446372;28;20056;-79
2023/05/04 15:50:11;;;;;;;1.63;0.38;;;;;;;24.59;59.12;101537.84;10433832;28;20496;-78
2023/05/04 15:55:12;;;;;;;0.80;0.38;;;;;;;24.46;56.62;101542.53;10451846;28;20468;-79
2023/05/04 16:00:26;;;;;;;0.98;0.90;;;;;;;24.27;59.77;101536.78;10432535;28;20561;-79
2023/05/04 16:05:28;;;;;;;0.43;0.20;;;;;;;25.03;57.88;101548.25;10440934;28;20049;-79
2023/05/04 16:10:29;;;;;;;2.72;1.65;;;;;;;24.67;55.90;101541.22;10430906;28;20389;-80
2023/05/04 16:15:31;;;;;;;0.93;0.82;;;;;;;25.35;60.73;101534.25;10431809;28;20041;-80
2023/05/04 16:20:33;;;;;;;1.00;0.73;;;;;;;24.71;53.97;101534.97;10433214;28;20052;-80
2023/05/04 16:25:34;;;;;;;0.32;0.30;;;;;;;24.71;57.55;101527.06;10417450;28;20504;-80
2023/05/04 16:30:36;;;;;;;1.10;0.52;;;;;;;24.86;55.36;101524.94;10445619;28;20065;-80
2023/05/04 16:35:38;;;;;;;0.57;0.28;;;;;;;24.13;57.39;101518.63;10450737;28;20037;-80
2023/05/04 16:40:40;;;;;;;0.47;0.40;;;;;;;24.29;56.77;101507.78;10425832;28;20126;-80
2023/05/04 16:45:42;;;;;;;0.50;0.38;;;;;;;24.54;55.56;101500.19;10431850;28;20037;-80
2023/05/04 16:50:44;;;;;;;0.65;0.28;;;;;;;24.29;60.06;101486.72;10442991;28;20041;-80
2023/05/04 16:55:46;;;;;;;0.43;0.43;;;;;;;24.34;57.79;101485.72;10449920;28;20451;-80
2023/05/04 17:00:47;;;;;;;0.30;0.20;;;;;;;24.36;59.09;101473.41;10431809;28;20379;-82
2023/05/04 17:05:49;;;;;;;1.00;0.35;;;;;;;24.47;58.52;101469.63;10414820;28;20033;-79
2023/05/04 17:10:51;;;;;;;0.10;0.10;;;;;;;24.45;56.23;101477.56;10432410;28;20055;-80
2023/05/04 17:15:53;;;;;;;0.63;0.63;;;;;;;24.53;58.56;101474.78;10431447;28;20094;-79
2023/05/04 17:20:54;;;;;;;0.80;0.68;;;;;;;24.76;56.98;101476.88;10409799;28;20051;-79
2023/05/04 17:25:56;;;;;;;0.43;0.43;;;;;;;23.61;56.86;101478.44;10417998;28;20069;-80
2023/05/04 17:30:57;;;;;;;0.70;0.52;;;;;;;24.06;57.42;101475.81;10429322;28;20570;-80
2023/05/04 17:35:59;;;;;;;1.05;0.68;;;;;;;23.98;59.26;101482.16;10447621;28;20095;-80
2023/05/04 17:41:01;;;;;;;0.55;0.30;;;;;;;23.95;60.75;101483.06;10436413;28;20076;-80
2023/05/04 17:46:02;;;;;;;0.60;0.25;;;;;;;23.85;60.73;101486.75;10429650;28;20041;-80
2023/05/04 17:51:07;;;;;;;1.08;0.32;;;;;;;23.52;60.70;101489.13;10438386;28;20053;-79
2023/05/04 17:56:34;;;;;;;0.75;0.73;;;;;;;23.47;62.10;101480.47;10421145;28;20132;-80
2023/05/04 18:01:35;;;;;;;0.20;0.10;;;;;;;23.37;65.05;101490.31;10441209;28;20103;-80
2023/05/04 18:06:37;;;;;;;0.47;0.30;;;;;;;22.98;65.11;101488.28;10431618;28;20055;-81
2023/05/04 18:11:39;;;;;;;0.20;0.20;;;;;;;23.21;65.82;101494.94;10437939;28;20053;-80
2023/05/04 18:16:41;;;;;;;0.43;0.15;;;;;;;22.65;65.05;101490.59;10438084;28;20592;-79
2023/05/04 18:21:42;;;;;;;0.25;0.25;;;;;;;22.34;65.16;101494.47;10438250;28;20107;-80
2023/05/04 18:26:44;;;;;;;0.82;0.35;;;;;;;22.22;68.67;101504.28;10439933;28;20451;-80
2023/05/04 18:31:46;;;;;;;0.20;0.20;;;;;;;22.45;67.27;101509.25;10421488;28;20053;-81
2023/05/04 18:36:48;;;;;;;0.60;0.32;;;;;;;22.01;67.30;101504.53;10436226;28;20056;-80
2023/05/04 18:41:49;;;;;;;0.98;0.50;;;;;;;21.79;69.57;101509.16;10454857;28;20037;-80
2023/05/04 18:46:51;;;;;;;0.20;0.20;;;;;;;21.52;70.81;101511.16;10425958;28;20041;-80
2023/05/04 18:51:53;;;;;;;0.20;0.17;;;;;;;21.35;73.16;101507.84;10437584;28;20056;-80
2023/05/04 18:56:56;;;;;;;0.85;0.60;;;;;;;20.98;74.48;101516.00;10433464;28;20037;-80
2023/05/04 19:01:58;;;;;;;0.10;0.10;;;;;;;20.91;75.04;101510.81;10443873;28;20106;-80
2023/05/04 19:07:00;;;;;;;0.98;0.47;;;;;;;20.55;78.32;101504.94;10419252;28;20048;-80
2023/05/04 19:12:02;;;;;;;0.25;0.22;;;;;;;20.36;80.61;101503.31;10423316;28;20106;-80
2023/05/04 19:17:04;;;;;;;0.15;0.15;;;;;;;20.19;80.07;101503.38;10417795;28;20041;-80
2023/05/04 19:22:06;;;;;;;0.10;0.10;;;;;;;20.36;79.04;101508.53;10426549;28;20190;-81
2023/05/04 19:27:08;;;;;;;0.22;0.17;;;;;;;20.21;80.73;101512.97;10409100;28;20064;-81
2023/05/04 19:32:09;;;;;;;0.55;0.55;;;;;;;20.07;81.22;101515.63;10431010;28;20051;-81
2023/05/04 19:37:25;;;;;;;0.40;0.20;;;;;;;19.79;81.89;101517.44;10445398;28;20052;-81
2023/05/04 19:42:27;;;;;;;0.10;0.10;;;;;;;19.73;82.95;101517.44;10422760;28;20512;-81
2023/05/04 19:47:29;;;;;;;0.80;0.35;;;;;;;19.56;83.43;101520.09;10415638;28;20045;-79
2023/05/04 19:52:33;;;;;;;0.43;0.30;;;;;;;19.15;89.32;101519.28;10433345;28;20246;-81
2023/05/04 19:57:35;;;;;;;3.10;0.35;;;;;;;19.21;87.64;101516.66;10422439;28;20099;-81
2023/05/04 20:02:37;;;;;;;0.30;0.10;;;;;;;18.97;88.57;101510.53;10416800;28;20044;-80
2023/05/04 20:07:38;;;;;;;0.52;0.43;;;;;;;18.83;90.65;101507.03;10440761;28;20424;-81
2023/05/04 20:12:40;;;;;;;0.05;0.00;;;;;;;18.10;96.79;101509.41;10426654;28;20079;-80
2023/05/04 20:17:42;;;;;;;1.05;0.30;;;;;;;17.88;99.51;101505.81;10432227;28;20043;-80
2023/05/04 20:22:43;;;;;;;1.00;0.93;;;;;;;17.79;100.00;101497.94;10415836;28;20488;-81
2023/05/04 20:27:47;;;;;;;1.00;0.93;;;;;;;18.32;97.06;101494.75;10417783;28;20099;-80
2023/05/04 20:32:49;;;;;;;0.95;0.95;;;;;;;18.41;95.52;101498.25;10406179;28;20128;-79
2023/05/04 20:37:51;;;;;;;0.32;0.30;;;;;;;18.45;93.83;101494.75;10413291;28;20141;-79
2023/05/04 20:42:53;;;;;;;0.10;0.10;;;;;;;18.69;93.91;101484.38;10432172;28;20496;-80
2023/05/04 20:47:54;;;;;;;0.20;0.13;;;;;;;18.37;95.63;101479.97;10431447;28;20033;-79
2023/05/04 20:52:56;;;;;;;0.10;0.10;;;;;;;18.49;95.86;101476.50;10434085;28;20041;-80
2023/05/04 20:57:58;;;;;;;0.30;0.10;;;;;;;18.55;92.78;101470.44;10448340;28;20416;-79
2023/05/04 21:02:59;;;;;;;0.50;0.25;;;;;;;17.96;95.15;101472.88;10430155;28;20111;-80
2023/05/04 21:08:01;;;;;;;2.47;0.45;;;;;;;17.91;94.93;101467.59;10430679;28;20048;-80
2023/05/04 21:13:03;;;;;;;0.50;0.50;;;;;;;17.76;96.42;101457.97;10447734;28;20454;-79
2023/05/04 21:18:05;;;;;;;0.63;0.30;;;;;;;17.61;96.08;101452.66;10430550;28;20041;-79
2023/05/04 21:23:07;;;;;;;1.30;1.02;;;;;;;17.62;97.91;101444.00;10448442;28;20080;-79
2023/05/04 21:28:08;;;;;;;0.20;0.20;;;;;;;17.31;100.00;101443.84;10434811;28;20045;-80
2023/05/04 21:33:10;;;;;;;0.52;0.20;;;;;;;17.37;98.99;101437.78;10431526;28;20193;-79
2023/05/04 21:38:12;;;;;;;0.28;0.28;;;;;;;16.75;100.00;101437.31;10424695;28;20045;-80
2023/05/04 21:43:13;;;;;;;2.03;0.88;;;;;;;17.18;98.44;101435.06;10417156;28;20497;-80
2023/05/04 21:48:15;;;;;;;0.45;0.38;;;;;;;16.99;100.00;101426.25;10402253;28;20473;-80
2023/05/04 21:53:16;;;;;;;0.28;0.22;;;;;;;16.52;100.00;101424.06;10422047;28;20056;-80
2023/05/04 21:58:18;;;;;;;1.90;0.90;;;;;;;17.05;100.00;101418.47;10413406;28;20045;-80
2023/05/04 22:03:20;;;;;;;0.15;0.15;;;;;;;17.11;99.92;101405.50;10411814;28;20048;-80
2023/05/04 22:08:26;;;;;;;0.40;0.30;;;;;;;16.93;100.00;101416.66;10409730;28;20049;-80
2023/05/04 22:13:28;;;;;;;0.20;0.10;;;;;;;16.67;100.00;101407.75;10423196;28;20045;-80
2023/05/04 22:18:29;;;;;;;1.20;0.80;;;;;;;16.36;100.00;101404.84;10412836;28;20072;-80
2023/05/04 22:23:31;;;;;;;0.80;0.50;;;;;;;16.28;100.00;101399.56;10420487;28;20107;-80
2023/05/04 22:28:33;;;;;;;4.07;2.08;;;;;;;16.30;100.00;101393.53;10429493;28;20041;-80
2023/05/04 22:33:34;;;;;;;0.63;0.63;;;;;;;16.44;100.00;101401.47;10412962;28;20041;-80
2023/05/04 22:38:36;;;;;;;0.50;0.30;;;;;;;16.30;100.00;101403.94;10421081;28;20053;-80
2023/05/04 22:43:37;;;;;;;0.10;0.10;;;;;;;16.31;100.00;101400.47;10444503;28;20057;-80
2023/05/04 22:48:39;;;;;;;0.55;0.28;;;;;;;16.38;100.00;101401.41;10435991;28;20045;-80
2023/05/04 22:53:41;;;;;;;0.30;0.20;;;;;;;16.69;100.00;101395.59;10419649;28;20044;-81
2023/05/04 22:58:44;;;;;;;0.00;0.00;;;;;;;16.57;100.00;101396.38;10440605;28;20439;-80
2023/05/04 23:03:47;;;;;;;0.40;0.30;;;;;;;16.06;100.00;101394.13;10435553;28;20080;-81
2023/05/04 23:08:49;;;;;;;0.30;0.05;;;;;;;15.37;100.00;101412.31;10453014;28;20086;-80